Time;durP1;ratioP1;P1;durP2;ratioP2;P2;SDS_P1;SDS_P2;PMS_P1;PMS_P2;Temp;Humidity;BMP_temperature;BMP_pressure;BME280_temperature;BME280_humidity;BME280_pressure;Samples;Min_cycle;Max_cycle;Signal;HPM_P1;HPM_P2
2023/03/19 00:00:46;;;;;;;;;6.17;5.17;;;;;14.54;62.27;101081.28;2013060;28;2740936;-75
2023/03/19 00:01:59;;;;;;;;;6.83;6.83;;;;;14.54;62.55;101081.28;2020029;28;2740970;-75
2023/03/19 00:03:10;;;;;;;;;5.00;5.00;;;;;14.54;62.31;101083.91;1994478;28;2748293;-75
2023/03/19 00:04:23;;;;;;;;;4.00;4.00;;;;;14.53;62.41;101091.00;2034777;28;2744032;-75
2023/03/19 00:05:36;;;;;;;;;2.50;2.00;;;;;14.54;62.51;101089.22;2043707;28;2725849;-75
2023/03/19 00:06:50;;;;;;;;;5.33;4.17;;;;;14.52;62.58;101087.47;2036152;28;2734672;-75
2023/03/19 00:08:03;;;;;;;;;6.00;4.83;;;;;14.53;62.77;101096.28;2017254;28;2737848;-75
2023/03/19 00:09:17;;;;;;;;;4.33;4.33;;;;;14.52;62.50;101092.75;2020409;28;2743033;-75
2023/03/19 00:10:28;;;;;;;;;7.67;5.00;;;;;14.52;62.48;101094.53;1993146;28;2746606;-75
2023/03/19 00:11:39;;;;;;;;;5.00;5.00;;;;;14.51;62.29;101098.13;2038907;28;2746143;-75
2023/03/19 00:12:52;;;;;;;;;5.33;5.17;;;;;14.50;62.26;101099.03;2037313;28;2748213;-75
2023/03/19 00:14:06;;;;;;;;;5.33;5.17;;;;;14.50;62.38;101093.75;2020318;28;2743493;-75
2023/03/19 00:15:19;;;;;;;;;6.33;5.00;;;;;14.51;62.33;101098.13;2014172;28;2748206;-75
2023/03/19 00:16:29;;;;;;;;;4.33;3.00;;;;;14.50;62.32;101096.41;1994138;28;2743028;-75
2023/03/19 00:17:41;;;;;;;;;6.00;4.33;;;;;14.50;61.96;101097.28;2040397;28;2743010;-75
2023/03/19 00:18:52;;;;;;;;;4.33;4.33;;;;;14.49;62.29;101095.53;1992241;28;2736744;-75
2023/03/19 00:20:05;;;;;;;;;7.00;5.00;;;;;14.49;62.46;101100.00;2039647;28;2740914;-75
2023/03/19 00:21:19;;;;;;;;;4.00;4.00;;;;;14.48;62.68;101098.25;2033251;28;2743033;-75
2023/03/19 00:22:32;;;;;;;;;3.17;3.17;;;;;14.47;62.47;101100.03;2016992;28;2739938;-75
2023/03/19 00:23:45;;;;;;;;;3.00;3.00;;;;;14.47;62.31;101096.56;2017231;28;2744075;-75
2023/03/19 00:24:59;;;;;;;;;5.00;3.00;;;;;14.46;62.32;101094.84;2017317;28;2733615;-75
2023/03/19 00:26:12;;;;;;;;;4.17;3.33;;;;;14.45;62.29;101103.69;2018528;28;2746150;-75
2023/03/19 00:27:25;;;;;;;;;3.50;3.17;;;;;14.43;62.39;101097.59;2013571;28;2737797;-75
2023/03/19 00:28:36;;;;;;;;;3.00;3.00;;;;;14.41;62.43;101095.03;1991441;28;2749267;-75
2023/03/19 00:29:48;;;;;;;;;2.00;2.00;;;;;14.39;62.18;101105.69;2039002;28;2753449;-75
2023/03/19 00:31:11;;;;;;;;;3.00;3.00;;;;;14.40;62.11;101101.25;2038234;28;2750308;-75
2023/03/19 00:32:24;;;;;;;;;3.00;3.00;;;;;14.38;62.20;101096.03;2041310;28;2741968;-75
2023/03/19 00:33:37;;;;;;;;;3.17;3.00;;;;;14.36;62.31;101097.88;2019232;28;2737802;-75
2023/03/19 00:34:51;;;;;;;;;3.33;3.00;;;;;14.35;62.38;101101.44;2011539;28;2750919;-75
2023/03/19 00:36:05;;;;;;;;;4.00;3.00;;;;;14.34;62.05;101098.88;2017858;28;2745117;-75
2023/03/19 00:37:18;;;;;;;;;2.00;2.00;;;;;14.33;62.24;101097.13;2014198;28;2746138;-75
2023/03/19 00:38:33;;;;;;;;;2.67;2.67;;;;;14.33;62.36;101098.00;2015162;28;2744070;-75
2023/03/19 00:39:46;;;;;;;;;4.33;2.67;;;;;14.32;62.38;101104.19;2041632;28;2721139;-75
2023/03/19 00:40:59;;;;;;;;;2.00;2.00;;;;;14.33;62.35;101105.06;2015157;28;2744398;-75
2023/03/19 00:42:12;;;;;;;;;2.17;2.00;;;;;14.30;62.36;101106.06;2019573;28;2746130;-75
2023/03/19 00:43:26;;;;;;;;;2.67;2.67;;;;;14.29;62.27;101105.22;2029621;27;2732573;-75
2023/03/19 00:44:39;;;;;;;;;3.00;3.00;;;;;14.29;62.28;101105.22;2032810;27;2741976;-75
2023/03/19 00:45:53;;;;;;;;;3.50;2.33;;;;;14.29;62.34;101109.66;2015699;28;2737801;-75
2023/03/19 00:47:06;;;;;;;;;2.33;2.33;;;;;14.29;62.47;101109.66;2020432;28;2726328;-75
2023/03/19 00:48:20;;;;;;;;;2.17;2.17;;;;;14.29;62.46;101114.94;2017411;28;2742986;-75
2023/03/19 00:49:34;;;;;;;;;2.67;2.67;;;;;14.29;62.46;101115.81;2018049;28;2748257;-75
2023/03/19 00:50:47;;;;;;;;;0.50;0.50;;;;;14.29;62.21;101114.94;2039132;28;2725288;-75
2023/03/19 00:52:01;;;;;;;;;2.00;2.00;;;;;14.26;62.51;101118.56;2040308;28;2733622;-75
2023/03/19 00:53:14;;;;;;;;;2.83;2.50;;;;;14.27;62.31;101119.44;2014454;28;2750316;-75
2023/03/19 00:54:27;;;;;;;;;1.67;1.67;;;;;14.27;62.33;101114.97;2020586;28;2735702;-75
2023/03/19 00:55:41;;;;;;;;;4.67;3.00;;;;;14.28;62.58;101115.84;2017082;28;2746114;-75
2023/03/19 00:56:54;;;;;;;;;2.17;2.17;;;;;14.27;62.47;101112.34;2013354;28;2746146;-75
2023/03/19 00:58:05;;;;;;;;;3.00;2.00;;;;;14.27;62.57;101114.16;2018317;28;2751329;-75
2023/03/19 00:59:18;;;;;;;;;3.00;3.00;;;;;14.28;62.51;101110.56;2043445;28;2737785;-75
2023/03/19 01:00:33;;;;;;;;;2.67;2.67;;;;;14.28;62.39;101118.50;2018819;28;2737828;-75
2023/03/19 01:01:46;;;;;;;;;3.00;3.00;;;;;14.28;62.09;101114.06;2016410;28;2749244;-75
2023/03/19 01:03:00;;;;;;;;;3.33;2.83;;;;;14.28;62.41;101124.66;2017402;28;2745108;-75
2023/03/19 01:04:10;;;;;;;;;3.33;3.33;;;;;14.28;62.26;101118.50;1994825;28;2742472;-75
2023/03/19 01:05:21;;;;;;;;;3.00;2.67;;;;;14.28;62.51;101122.00;2038822;28;2750336;-75
2023/03/19 01:06:35;;;;;;;;;4.33;2.83;;;;;14.29;62.20;101120.22;2037483;28;2733671;-75
2023/03/19 01:07:49;;;;;;;;;3.17;2.67;;;;;14.29;62.62;101126.38;2035916;27;2730505;-75
2023/03/19 01:09:03;;;;;;;;;2.17;2.00;;;;;14.30;62.43;101132.50;2052981;27;2741932;-75
2023/03/19 01:10:21;;;;;;;;;2.33;2.33;;;;;14.29;62.47;101130.81;2019215;28;2746130;-75
2023/03/19 01:11:35;;;;;;;;;2.33;2.00;;;;;14.29;62.38;101130.81;2017817;28;2728957;-75
2023/03/19 01:12:49;;;;;;;;;2.17;2.00;;;;;14.29;62.54;101131.66;2041639;28;2750765;-75
2023/03/19 01:14:02;;;;;;;;;4.00;4.00;;;;;14.29;62.63;101130.81;2020575;28;2750292;-75
2023/03/19 01:15:17;;;;;;;;;2.50;2.00;;;;;14.30;62.53;101132.50;2016749;28;2741284;-75
2023/03/19 01:16:30;;;;;;;;;3.00;3.00;;;;;14.29;62.50;101128.16;2014130;28;2744062;-75
2023/03/19 01:17:44;;;;;;;;;3.00;2.33;;;;;14.27;62.39;101137.94;2043073;28;2729472;-75
2023/03/19 01:18:57;;;;;;;;;4.00;2.33;;;;;14.26;62.37;101131.78;2015966;28;2739905;-75
2023/03/19 01:20:17;;;;;;;;;3.67;2.33;;;;;14.25;62.67;101131.84;2016577;28;2740918;-75
2023/03/19 01:21:31;;;;;;;;;3.00;3.00;;;;;14.24;62.55;101132.78;1989005;28;3466137;-75
2023/03/19 01:22:44;;;;;;;;;3.17;3.17;;;;;14.25;62.42;101140.63;2042296;28;2735781;-75
2023/03/19 01:23:58;;;;;;;;;2.50;1.83;;;;;14.25;62.32;101134.47;2019214;28;2744032;-75
2023/03/19 01:25:13;;;;;;;;;2.83;2.50;;;;;14.25;62.45;101142.41;2016221;28;2730494;-75
2023/03/19 01:26:26;;;;;;;;;4.50;2.33;;;;;14.25;62.64;101134.47;2019273;28;2735697;-75
2023/03/19 01:27:39;;;;;;;;;2.00;2.00;;;;;14.24;62.50;101133.66;2018277;28;2735722;-75
2023/03/19 01:28:53;;;;;;;;;2.67;2.67;;;;;14.24;62.98;101131.00;2040858;28;2743007;-75
2023/03/19 01:30:06;;;;;;;;;5.50;2.67;;;;;14.23;62.61;101131.91;2020433;28;2730505;-75
2023/03/19 01:31:17;;;;;;;;;4.67;3.67;;;;;14.24;62.33;101132.78;1988908;28;2750304;-75
2023/03/19 01:32:29;;;;;;;;;2.25;2.25;;;;;14.24;62.61;101130.13;2039872;28;2735714;-75
2023/03/19 01:33:42;;;;;;;;;2.50;2.50;;;;;14.23;62.44;101131.91;2035231;28;2730539;-75
2023/03/19 01:34:55;;;;;;;;;2.83;2.83;;;;;14.25;62.65;101137.13;2016233;28;2741970;-75
2023/03/19 01:36:09;;;;;;;;;1.33;0.83;;;;;14.24;62.30;101132.78;2018379;28;2725309;-75
2023/03/19 01:37:23;;;;;;;;;1.67;1.67;;;;;14.23;62.71;101131.03;2042420;28;2735734;-75
2023/03/19 01:38:34;;;;;;;;;3.00;3.00;;;;;14.24;62.82;101133.66;1990349;28;2743001;-75
2023/03/19 01:39:46;;;;;;;;;2.50;2.50;;;;;14.24;62.59;101136.28;2041765;28;2737843;-75
2023/03/19 01:40:59;;;;;;;;;3.00;3.00;;;;;14.24;62.45;101141.56;2039343;28;2736767;-75
2023/03/19 01:42:13;;;;;;;;;2.00;2.00;;;;;14.24;62.67;101135.41;2016748;28;2741983;-75
2023/03/19 01:43:26;;;;;;;;;6.00;5.00;;;;;14.24;62.54;101138.06;1993457;28;2748293;-75
2023/03/19 01:44:40;;;;;;;;;3.00;3.00;;;;;14.24;62.73;101140.72;2037956;28;2746126;-75
2023/03/19 01:46:27;;;;;;;;;3.33;3.00;;;;;14.24;62.61;101135.41;2016171;28;2737798;-75
2023/03/19 01:47:43;;;;;;;;;2.50;2.50;;;;;14.23;62.52;101131.03;2017687;28;2737777;-75
2023/03/19 01:49:04;;;;;;;;;4.83;3.67;;;;;14.23;62.67;101138.97;2019645;28;2739868;-75
2023/03/19 01:50:29;;;;;;;;;5.00;3.33;;;;;14.23;62.12;101131.03;1986866;28;2748205;-75
2023/03/19 01:51:46;;;;;;;;;2.33;2.33;;;;;14.22;62.74;101134.63;2041942;28;2750286;-75
2023/03/19 01:52:56;;;;;;;;;5.00;2.00;;;;;14.22;62.77;101137.28;1987529;28;2754467;-75
2023/03/19 01:54:15;;;;;;;;;3.00;3.00;;;;;14.21;62.70;101138.19;2040052;28;2737821;-75
2023/03/19 01:55:29;;;;;;;;;2.00;2.00;;;;;14.19;62.60;101135.63;2037962;28;2742351;-75
2023/03/19 01:56:45;;;;;;;;;3.33;2.50;;;;;14.18;62.55;101132.09;2020428;28;2753406;-75
2023/03/19 01:58:00;;;;;;;;;3.00;3.00;;;;;14.18;62.33;101132.09;2017502;28;2750293;-75
2023/03/19 01:59:21;;;;;;;;;2.00;1.33;;;;;14.18;62.85;101132.09;2016646;28;2737805;-75
2023/03/19 02:00:37;;;;;;;;;2.00;2.00;;;;;14.19;62.75;101138.25;2012916;28;2741984;-74
2023/03/19 02:02:09;;;;;;;;;4.17;3.17;;;;;14.18;62.82;101132.09;2012945;28;2740899;-75
2023/03/19 02:03:23;;;;;;;;;2.50;2.50;;;;;14.18;62.71;101134.75;2019730;28;2744452;-75
2023/03/19 02:04:40;;;;;;;;;1.00;0.83;;;;;14.17;62.76;101129.53;2014287;28;2741936;-75
2023/03/19 02:05:55;;;;;;;;;2.50;2.50;;;;;14.16;62.56;101135.75;2018933;28;2748236;-74
2023/03/19 02:07:10;;;;;;;;;3.00;3.00;;;;;14.16;62.74;101133.97;2041402;28;2735699;-75
2023/03/19 02:08:24;;;;;;;;;4.00;3.00;;;;;14.16;62.91;101133.09;2015162;28;2754463;-75
2023/03/19 02:09:39;;;;;;;;;3.17;2.83;;;;;14.14;63.08;101132.31;2016134;28;2745073;-75
2023/03/19 02:10:54;;;;;;;;;3.67;3.00;;;;;14.13;62.84;101126.16;2019403;28;2736751;-75
2023/03/19 02:12:08;;;;;;;;;2.00;2.00;;;;;14.14;62.89;101121.72;2021063;27;2741979;-75
2023/03/19 02:13:22;;;;;;;;;3.33;3.33;;;;;14.11;62.66;101117.44;2025524;28;2748208;-75
2023/03/19 02:14:35;;;;;;;;;2.67;2.33;;;;;14.10;62.82;101120.16;2030062;27;2739905;-75
2023/03/19 02:15:49;;;;;;;;;2.33;2.33;;;;;14.10;62.69;101117.50;2033069;27;2728434;-75
2023/03/19 02:17:04;;;;;;;;;2.17;2.17;;;;;14.08;62.95;101117.56;2016075;28;2729461;-75
2023/03/19 02:18:17;;;;;;;;;3.17;3.17;;;;;14.09;62.82;101113.13;2018714;28;2736751;-75
2023/03/19 02:19:42;;;;;;;;;3.50;2.50;;;;;14.08;62.97;101114.91;2020164;28;2739865;-75
2023/03/19 02:21:06;;;;;;;;;3.00;3.00;;;;;14.07;62.97;101114.03;1988880;28;2741983;-75
2023/03/19 02:22:23;;;;;;;;;3.67;2.83;;;;;14.06;62.69;101114.13;2035746;28;2734664;-75
2023/03/19 02:24:00;;;;;;;;;3.00;2.33;;;;;14.06;62.77;101116.75;2013888;28;2752380;-75
2023/03/19 02:25:38;;;;;;;;;7.00;3.33;;;;;14.05;62.94;101112.41;1990063;28;2750309;-75
2023/03/19 02:26:52;;;;;;;;;3.17;2.00;;;;;14.04;62.69;101110.69;2042870;28;2726379;-75
2023/03/19 02:28:08;;;;;;;;;3.67;2.67;;;;;14.02;62.87;101107.25;2035584;28;2744066;-75
2023/03/19 02:29:21;;;;;;;;;3.17;3.17;;;;;14.01;62.64;101108.16;2019610;28;2746127;-75
2023/03/19 02:30:35;;;;;;;;;3.33;3.33;;;;;14.00;62.96;101103.81;2019382;28;2749531;-75
2023/03/19 02:31:46;;;;;;;;;3.00;3.00;;;;;13.98;62.90;101105.63;1994247;28;2754473;-75
2023/03/19 02:32:58;;;;;;;;;4.00;3.25;;;;;13.95;63.01;101115.41;2036327;28;2731556;-75
2023/03/19 02:34:22;;;;;;;;;4.00;3.17;;;;;13.94;62.80;101119.00;2039092;28;2731532;-75
2023/03/19 02:35:37;;;;;;;;;2.67;2.00;;;;;13.92;62.58;101112.06;2014339;28;2746135;-75
2023/03/19 02:36:54;;;;;;;;;3.33;2.83;;;;;13.89;62.92;101118.31;2021252;28;2727853;-75
2023/03/19 02:38:09;;;;;;;;;4.00;3.83;;;;;13.88;62.77;101119.22;2039668;28;2743057;-75
2023/03/19 02:39:31;;;;;;;;;1.00;1.00;;;;;13.85;63.03;101114.09;2016676;28;2729838;-75
2023/03/19 02:40:59;;;;;;;;;3.00;3.00;;;;;13.84;62.93;101121.16;2018680;28;2733639;-75
2023/03/19 02:42:16;;;;;;;;;6.00;3.17;;;;;13.83;62.90;101126.47;2040833;28;2739865;-75
2023/03/19 02:43:31;;;;;;;;;3.50;3.50;;;;;13.80;63.10;101127.47;2020469;28;2728467;-75
2023/03/19 02:44:45;;;;;;;;;6.00;4.17;;;;;13.79;63.16;101127.53;2020163;28;2739883;-75
2023/03/19 02:45:59;;;;;;;;;2.17;2.00;;;;;13.78;63.03;101137.25;2017241;28;2739875;-75
2023/03/19 02:47:12;;;;;;;;;4.33;3.67;;;;;13.78;63.17;101141.69;2020358;28;2750292;-75
2023/03/19 02:48:26;;;;;;;;;3.17;3.17;;;;;13.78;63.36;101139.06;2016346;28;2745097;-75
2023/03/19 02:49:36;;;;;;;;;2.00;2.00;;;;;13.78;63.43;101139.06;1995825;28;2746133;-75
2023/03/19 02:50:47;;;;;;;;;3.67;3.33;;;;;13.76;63.37;101135.59;2034499;28;3461723;-75
2023/03/19 02:51:58;;;;;;;;;4.00;3.00;;;;;13.76;63.44;101132.94;2025899;28;2754467;-75
2023/03/19 02:53:09;;;;;;;;;2.33;2.33;;;;;13.75;63.55;101128.59;2041351;28;2740914;-75
2023/03/19 02:54:22;;;;;;;;;3.33;2.33;;;;;13.75;63.51;101126.81;2020658;28;2745604;-75
2023/03/19 02:55:35;;;;;;;;;4.00;3.17;;;;;13.76;63.45;101127.66;2037716;28;2754974;-75
2023/03/19 02:56:51;;;;;;;;;4.67;4.00;;;;;13.75;63.48;101128.59;2017240;28;2752405;-75
2023/03/19 02:58:04;;;;;;;;;3.00;3.00;;;;;13.76;63.47;101120.59;2013321;28;2750289;-74
2023/03/19 02:59:18;;;;;;;;;4.00;3.00;;;;;13.77;63.80;101124.09;2020933;28;2748193;-74
2023/03/19 03:00:28;;;;;;;;;4.00;2.67;;;;;13.78;63.68;101128.47;1995014;28;2749649;-75
2023/03/19 03:01:39;;;;;;;;;4.00;4.00;;;;;13.78;63.71;101131.13;2031501;28;2754468;-75
2023/03/19 03:02:53;;;;;;;;;5.20;4.40;;;;;13.78;63.51;101136.41;2044498;28;2746225;-75
2023/03/19 03:04:07;;;;;;;;;3.67;3.67;;;;;13.78;63.57;101125.84;2021687;28;2745608;-75
2023/03/19 03:05:21;;;;;;;;;3.33;3.17;;;;;13.79;63.86;101127.53;2020117;28;2747164;-75
2023/03/19 03:06:34;;;;;;;;;3.00;2.33;;;;;13.79;63.26;101123.13;2015231;28;2750305;-75
2023/03/19 03:07:44;;;;;;;;;3.33;3.33;;;;;13.79;63.68;101119.63;2012467;28;2746123;-75
2023/03/19 03:08:56;;;;;;;;;4.33;3.00;;;;;13.80;63.68;101129.28;2043349;28;2750289;-75
2023/03/19 03:10:10;;;;;;;;;4.17;4.17;;;;;13.79;64.03;101116.97;2020167;28;2734669;-75
2023/03/19 03:11:23;;;;;;;;;3.00;3.00;;;;;13.79;63.60;101124.91;2015320;28;2735699;-75
2023/03/19 03:12:37;;;;;;;;;4.00;4.00;;;;;13.79;63.48;101127.53;2021426;28;2751354;-75
2023/03/19 03:13:48;;;;;;;;;4.33;4.00;;;;;13.79;63.68;101122.25;1994003;28;3470072;-75
2023/03/19 03:14:59;;;;;;;;;4.67;4.00;;;;;13.78;63.67;101134.59;2040608;28;2748688;-75
2023/03/19 03:16:12;;;;;;;;;4.67;2.67;;;;;13.79;63.54;101132.81;2016972;28;2741960;-74
2023/03/19 03:17:26;;;;;;;;;4.00;2.83;;;;;13.78;63.60;101131.97;2015707;28;2752423;-75
2023/03/19 03:18:40;;;;;;;;;3.83;3.83;;;;;13.78;63.75;101131.13;2020153;28;2748698;-75
2023/03/19 03:19:53;;;;;;;;;4.50;3.67;;;;;13.79;63.75;101135.47;2019789;28;2746750;-74
2023/03/19 03:21:07;;;;;;;;;4.50;3.33;;;;;13.78;63.52;101136.41;2014513;28;2734677;-75
2023/03/19 03:22:20;;;;;;;;;4.83;4.83;;;;;13.78;63.69;101131.13;2020117;28;2740933;-75
2023/03/19 03:23:30;;;;;;;;;4.00;4.00;;;;;13.77;64.00;101132.03;1994602;28;2754532;-75
2023/03/19 03:24:42;;;;;;;;;4.00;4.00;;;;;13.77;63.76;101137.31;2041843;28;2737825;-75
2023/03/19 03:25:55;;;;;;;;;4.00;4.00;;;;;13.76;63.63;101136.44;2036794;28;2754463;-75
2023/03/19 03:27:08;;;;;;;;;4.00;4.00;;;;;13.76;63.56;101132.94;2017148;28;2754605;-75
2023/03/19 03:28:22;;;;;;;;;4.67;4.00;;;;;13.74;63.55;101140.94;2018985;28;2746183;-75
2023/03/19 03:29:35;;;;;;;;;4.67;4.67;;;;;13.76;63.67;101146.16;2020005;28;2744051;-74
2023/03/19 03:30:48;;;;;;;;;5.00;2.83;;;;;13.75;63.77;101134.75;2025532;28;2736763;-75
2023/03/19 03:31:59;;;;;;;;;4.33;3.67;;;;;13.75;63.73;101133.88;1999729;28;2751338;-75
2023/03/19 03:33:10;;;;;;;;;4.00;4.00;;;;;13.75;63.93;101128.59;2025558;28;2752375;-75
2023/03/19 03:34:24;;;;;;;;;4.83;4.83;;;;;13.75;63.83;101133.88;2041741;28;2746219;-75
2023/03/19 03:35:35;;;;;;;;;8.33;5.67;;;;;13.74;64.15;101130.38;2011323;28;2751318;-75
2023/03/19 03:36:45;;;;;;;;;4.33;4.33;;;;;13.74;63.64;101135.66;2026263;28;2746126;-75
2023/03/19 03:37:58;;;;;;;;;4.25;4.25;;;;;13.75;63.60;101136.53;2039348;28;2740919;-75
2023/03/19 03:39:08;;;;;;;;;4.33;4.33;;;;;13.74;63.73;101133.00;2018230;28;2745080;-74
2023/03/19 03:40:20;;;;;;;;;5.00;2.67;;;;;13.75;63.78;101141.81;2037576;28;2746493;-75
2023/03/19 03:41:33;;;;;;;;;4.17;4.17;;;;;13.74;63.96;101140.94;2015970;28;2749247;-75
2023/03/19 03:42:43;;;;;;;;;4.67;3.67;;;;;13.73;63.90;101140.06;1988631;28;2746223;-75
2023/03/19 03:43:55;;;;;;;;;5.00;5.00;;;;;13.73;63.71;101144.50;2042665;28;2746115;-75
2023/03/19 03:45:06;;;;;;;;;4.00;4.00;;;;;13.73;63.73;101153.28;1995665;28;2752392;-75
2023/03/19 03:46:19;;;;;;;;;3.83;3.67;;;;;13.73;63.77;101142.72;2037468;28;2750337;-75
2023/03/19 03:47:32;;;;;;;;;7.67;5.33;;;;;13.72;63.84;101143.66;2019578;28;2747179;-75
2023/03/19 03:48:43;;;;;;;;;5.00;4.67;;;;;13.73;63.75;101134.78;1990059;28;2748199;-75
2023/03/19 03:49:54;;;;;;;;;6.00;5.00;;;;;13.73;64.04;101142.72;2036973;28;2731567;-75
2023/03/19 03:51:07;;;;;;;;;5.33;4.00;;;;;13.75;63.35;101147.09;2043048;28;2752440;-75
2023/03/19 03:52:18;;;;;;;;;4.00;4.00;;;;;13.75;63.73;101152.38;1995311;28;2750289;-75
2023/03/19 03:53:29;;;;;;;;;3.67;3.00;;;;;13.75;63.86;101152.38;2036719;28;2747217;-75
2023/03/19 03:54:42;;;;;;;;;6.33;4.83;;;;;13.75;63.72;101155.00;2015225;28;2745091;-75
2023/03/19 03:55:53;;;;;;;;;6.67;4.00;;;;;13.75;63.81;101157.66;1994849;28;2747201;-75
2023/03/19 03:57:04;;;;;;;;;6.00;3.67;;;;;13.74;63.90;101159.44;2041581;27;2733682;-75
2023/03/19 03:58:17;;;;;;;;;4.00;4.00;;;;;13.72;63.71;101159.50;2020932;28;2746150;-74
2023/03/19 03:59:30;;;;;;;;;4.17;4.17;;;;;13.72;63.99;101162.16;2017541;28;2754462;-75
2023/03/19 04:00:41;;;;;;;;;4.00;4.00;;;;;13.71;63.68;101152.47;1987810;28;2748205;-75
2023/03/19 04:01:52;;;;;;;;;4.50;4.50;;;;;13.71;63.57;101156.91;2038057;28;2744442;-75
2023/03/19 04:03:06;;;;;;;;;8.33;5.33;;;;;13.70;63.90;101152.56;2036966;28;2739880;-75
2023/03/19 04:04:19;;;;;;;;;5.00;5.00;;;;;13.69;63.88;101154.34;2042685;28;2746141;-75
2023/03/19 04:05:30;;;;;;;;;4.33;3.67;;;;;13.67;63.48;101158.81;1993418;28;2751341;-75
2023/03/19 04:06:42;;;;;;;;;5.50;4.00;;;;;13.67;63.81;101161.47;2039408;28;2752900;-75
2023/03/19 04:07:55;;;;;;;;;3.67;3.33;;;;;13.66;63.88;101159.72;2037976;28;2733635;-75
2023/03/19 04:09:09;;;;;;;;;5.00;5.00;;;;;13.66;63.97;101159.72;2020948;28;2737793;-75
2023/03/19 04:10:19;;;;;;;;;6.33;4.33;;;;;13.66;64.32;101159.72;1994508;28;2750334;-75
2023/03/19 04:11:30;;;;;;;;;3.67;3.67;;;;;13.66;64.09;101167.66;2024101;28;2745075;-74
2023/03/19 04:12:41;;;;;;;;;7.33;3.33;;;;;13.66;63.89;101167.66;2036927;28;2750295;-75
2023/03/19 04:13:56;;;;;;;;;4.67;4.33;;;;;13.67;63.92;101158.81;2020882;28;2752380;-75
2023/03/19 04:15:10;;;;;;;;;6.17;5.33;;;;;13.67;63.99;101160.59;2018203;28;2741973;-75
2023/03/19 04:16:24;;;;;;;;;2.33;2.00;;;;;13.67;63.88;101166.75;2015622;28;2734687;-75
2023/03/19 04:17:37;;;;;;;;;5.17;4.17;;;;;13.68;63.89;101157.03;2043260;28;2752395;-75
2023/03/19 04:18:48;;;;;;;;;3.67;3.67;;;;;13.68;63.92;101168.44;1988865;28;2754462;-75
2023/03/19 04:19:59;;;;;;;;;5.00;4.67;;;;;13.68;64.25;101162.31;2037456;28;2746658;-75
2023/03/19 04:21:12;;;;;;;;;5.67;4.83;;;;;13.67;64.00;101161.47;2021673;28;2746170;-75
2023/03/19 04:22:26;;;;;;;;;3.17;3.17;;;;;13.67;63.82;101161.47;2020667;28;2738831;-75
2023/03/19 04:23:39;;;;;;;;;6.17;5.50;;;;;13.67;63.89;101164.09;2018874;28;2739880;-75
2023/03/19 04:24:52;;;;;;;;;5.00;4.33;;;;;13.68;64.09;101159.69;2030478;28;2744458;-75
2023/03/19 04:26:06;;;;;;;;;5.67;4.17;;;;;13.68;64.12;101152.59;2020281;28;2745100;-75
2023/03/19 04:27:19;;;;;;;;;5.33;4.67;;;;;13.68;64.26;101159.69;2014810;28;2745141;-75
2023/03/19 04:28:33;;;;;;;;;4.83;4.83;;;;;13.67;64.26;101158.81;2019408;28;2740910;-75
2023/03/19 04:29:46;;;;;;;;;6.33;5.00;;;;;13.68;64.43;101160.53;2014206;28;2746115;-75
2023/03/19 04:31:08;;;;;;;;;6.67;4.00;;;;;13.68;64.05;101157.88;1990839;28;2748206;-74
2023/03/19 04:32:18;;;;;;;;;7.00;5.33;;;;;13.68;64.19;101162.31;2016239;28;2750399;-75
2023/03/19 04:33:30;;;;;;;;;5.00;5.00;;;;;13.67;64.40;101158.81;2039694;28;2742996;-75
2023/03/19 04:34:43;;;;;;;;;5.50;5.17;;;;;13.67;64.31;101160.59;2018318;28;2750301;-75
2023/03/19 04:35:54;;;;;;;;;5.33;5.33;;;;;13.67;64.21;101163.22;1993251;28;2743056;-75
2023/03/19 04:37:09;;;;;;;;;7.67;5.83;;;;;13.67;64.26;101161.47;2040663;28;2734199;-75
2023/03/19 04:38:19;;;;;;;;;5.33;4.67;;;;;13.68;64.46;101163.16;2012556;28;2741976;-75
2023/03/19 04:39:32;;;;;;;;;9.40;6.40;;;;;13.68;64.15;101159.69;2042712;28;2744031;-75
2023/03/19 04:40:42;;;;;;;;;5.00;4.33;;;;;13.67;64.34;101166.75;2017744;28;2750296;-75
2023/03/19 04:41:54;;;;;;;;;6.00;5.00;;;;;13.68;64.51;101163.16;2040480;28;2743072;-75
2023/03/19 04:43:07;;;;;;;;;2.33;2.33;;;;;13.67;64.31;101158.81;2038118;28;2734692;-75
2023/03/19 04:44:21;;;;;;;;;7.17;5.67;;;;;13.68;64.87;101162.31;2015407;28;2745087;-75
2023/03/19 04:45:35;;;;;;;;;5.17;4.83;;;;;13.68;64.67;101163.16;2019809;28;2743805;-75
2023/03/19 04:46:48;;;;;;;;;7.83;5.00;;;;;13.68;64.77;101163.16;2021577;28;2747163;-75
2023/03/19 04:47:59;;;;;;;;;5.33;5.33;;;;;13.69;64.83;101167.53;1989428;28;2743096;-75
2023/03/19 04:49:10;;;;;;;;;9.00;5.33;;;;;13.69;65.31;101167.53;2040103;28;2737780;-75
2023/03/19 04:50:21;;;;;;;;;4.67;4.67;;;;;13.69;65.11;101158.75;1988809;28;2743364;-75
2023/03/19 04:51:35;;;;;;;;;5.50;4.33;;;;;13.69;65.21;101174.59;2042515;28;2744051;-75
2023/03/19 04:52:48;;;;;;;;;7.67;6.33;;;;;13.69;65.22;101164.03;2059266;27;2739901;-75
2023/03/19 04:54:02;;;;;;;;;5.17;4.50;;;;;13.69;65.15;101169.31;2033350;27;2744061;-75
2023/03/19 04:55:13;;;;;;;;;6.67;5.67;;;;;13.69;65.47;101166.66;2000783;28;2730551;-75
2023/03/19 04:56:24;;;;;;;;;5.33;5.33;;;;;13.68;65.48;101163.16;2042025;28;2742995;-75
2023/03/19 04:57:37;;;;;;;;;6.17;5.67;;;;;13.68;65.56;101164.97;2017856;28;2738862;-75
2023/03/19 04:58:48;;;;;;;;;8.00;7.00;;;;;13.67;65.36;101168.53;2013494;28;2739888;-75
2023/03/19 04:59:59;;;;;;;;;7.33;7.33;;;;;13.66;65.82;101170.28;2048401;28;2737315;-75
2023/03/19 05:01:09;;;;;;;;;8.00;5.33;;;;;13.67;65.53;101171.16;2016243;28;3454439;-74
2023/03/19 05:02:22;;;;;;;;;7.75;7.75;;;;;13.66;65.69;101174.72;2038101;28;2739932;-75
2023/03/19 05:03:35;;;;;;;;;7.17;6.50;;;;;13.66;65.44;101170.28;2037329;28;2738856;-75
2023/03/19 05:04:45;;;;;;;;;5.33;5.33;;;;;13.66;65.64;101174.72;1994820;28;2745134;-74
2023/03/19 05:05:56;;;;;;;;;6.00;6.00;;;;;13.66;65.87;101169.44;2057898;27;2739875;-75
2023/03/19 05:07:07;;;;;;;;;8.67;8.67;;;;;13.65;65.63;101178.28;2030724;27;2745223;-75
2023/03/19 05:08:19;;;;;;;;;7.00;6.50;;;;;13.64;65.71;101171.28;2041026;28;2738819;-75
2023/03/19 05:09:32;;;;;;;;;5.33;4.17;;;;;13.64;65.45;101181.84;2037487;28;2745109;-74
2023/03/19 05:10:46;;;;;;;;;7.00;7.00;;;;;13.63;65.71;101178.31;2019500;28;2732587;-74
2023/03/19 05:11:59;;;;;;;;;6.50;6.50;;;;;13.63;65.39;101180.97;2040833;28;2741955;-75
2023/03/19 05:13:12;;;;;;;;;10.17;7.00;;;;;13.60;65.74;101174.06;2015151;28;2739880;-75
2023/03/19 05:14:23;;;;;;;;;10.00;8.33;;;;;13.60;65.45;101181.09;1993258;28;2754537;-75
2023/03/19 05:15:35;;;;;;;;;8.00;6.20;;;;;13.60;65.72;101183.75;2040392;28;2736743;-75
2023/03/19 05:16:46;;;;;;;;;9.00;7.67;;;;;13.60;66.11;101181.09;1989463;28;3457556;-75
2023/03/19 05:17:57;;;;;;;;;7.00;6.67;;;;;13.59;65.84;101187.28;2040955;28;2743359;-75
2023/03/19 05:19:10;;;;;;;;;6.00;5.50;;;;;13.59;65.91;101189.94;2017046;28;2746631;-75
2023/03/19 05:20:22;;;;;;;;;6.00;5.33;;;;;13.58;65.99;101189.06;1995950;28;3453389;-75
2023/03/19 05:21:36;;;;;;;;;8.00;5.83;;;;;13.58;66.15;101183.78;2042244;28;2739877;-75
2023/03/19 05:22:47;;;;;;;;;9.00;7.00;;;;;13.58;66.07;101178.50;2011811;28;3460669;-75
2023/03/19 05:23:59;;;;;;;;;7.20;7.20;;;;;13.57;66.24;101176.81;2040310;28;2737796;-75
2023/03/19 05:25:10;;;;;;;;;12.00;7.50;;;;;13.57;66.33;101182.09;2016169;28;2760689;-75
2023/03/19 05:26:21;;;;;;;;;9.00;9.00;;;;;13.57;66.04;101192.66;2031798;28;2742026;-75
2023/03/19 05:27:34;;;;;;;;;8.60;8.60;;;;;13.57;65.96;101191.78;2042159;28;2736741;-75
2023/03/19 05:28:45;;;;;;;;;9.67;8.33;;;;;13.56;66.04;101192.66;2031573;28;1825344;-75
2023/03/19 05:29:56;;;;;;;;;9.33;8.00;;;;;13.55;65.85;101191.81;2006819;28;3459656;-75
2023/03/19 05:31:07;;;;;;;;;5.67;5.67;;;;;13.54;65.98;101192.72;2036859;28;2741952;-75
2023/03/19 05:32:17;;;;;;;;;8.00;6.00;;;;;13.55;66.03;101188.31;1992716;28;3456586;-75
2023/03/19 05:33:28;;;;;;;;;7.00;7.00;;;;;13.54;66.01;101191.88;2017229;28;3447129;-75
2023/03/19 05:34:39;;;;;;;;;11.00;8.00;;;;;13.54;66.59;101198.00;2027257;28;2751418;-74